createdAt,value
2024-03-03T00:01:47.945Z,98876.59
2024-03-03T00:05:49.755Z,98869.69
2024-03-03T00:09:51.697Z,98854.28
2024-03-03T00:13:53.392Z,98838.88
2024-03-03T00:17:55.076Z,98822.56
2024-03-03T00:21:56.703Z,98795.19
2024-03-03T00:25:58.519Z,98785.69
2024-03-03T00:30:00.190Z,98792.47
2024-03-03T00:34:01.890Z,98884.53
2024-03-03T00:38:03.789Z,98891.94
2024-03-03T00:42:05.448Z,98869.69
2024-03-03T00:46:07.202Z,98900.47
2024-03-03T00:50:10.084Z,98880.75
2024-03-03T00:54:11.728Z,98870.50
2024-03-03T00:58:16.558Z,98890.16
2024-03-03T01:02:18.205Z,98878.22
2024-03-03T01:06:19.902Z,98873.09
2024-03-03T01:10:22.288Z,98886.69
2024-03-03T01:14:24.376Z,98875.50
2024-03-03T01:18:25.958Z,98866.94
2024-03-03T01:22:27.688Z,98861.81
2024-03-03T01:26:29.573Z,98872.00
2024-03-03T01:30:31.161Z,98878.75
2024-03-03T01:34:32.830Z,98881.22
2024-03-03T01:38:34.432Z,98871.88
2024-03-03T01:42:36.073Z,98876.25
2024-03-03T01:46:38.041Z,98877.06
2024-03-03T01:50:42.412Z,98861.53
2024-03-03T01:54:44.129Z,98860.56
2024-03-03T01:58:46.689Z,98840.00
2024-03-03T02:02:48.804Z,98849.31
2024-03-03T02:06:51.112Z,98845.78
2024-03-03T02:10:54.116Z,98850.78
2024-03-03T02:14:56.200Z,98843.88
2024-03-03T02:18:57.823Z,98844.78
2024-03-03T02:22:59.437Z,98846.53
2024-03-03T02:27:02.617Z,98852.41
2024-03-03T02:31:04.511Z,98852.44
2024-03-03T02:35:06.753Z,98873.66
2024-03-03T02:39:08.343Z,98870.22
2024-03-03T02:43:10.580Z,98871.91
2024-03-03T02:47:12.315Z,98871.84
2024-03-03T02:51:14.137Z,98867.41
2024-03-03T02:55:15.839Z,98858.81
2024-03-03T02:59:17.553Z,98863.88
2024-03-03T03:03:19.392Z,98863.66
2024-03-03T03:07:21.089Z,98871.41
2024-03-03T03:11:22.921Z,98867.19
2024-03-03T03:15:25.001Z,98867.22
2024-03-03T03:19:29.954Z,98875.03
2024-03-03T03:23:31.951Z,98880.09
2024-03-03T03:27:33.561Z,98864.81
2024-03-03T03:31:35.285Z,98861.50
2024-03-03T03:35:37.111Z,98861.44
2024-03-03T03:39:39.561Z,98860.63
2024-03-03T03:43:41.141Z,98862.28
2024-03-03T03:47:42.807Z,98869.06
2024-03-03T03:51:44.430Z,98874.22
2024-03-03T03:55:46.102Z,98880.19
2024-03-03T03:59:47.671Z,98875.13
2024-03-03T04:03:49.348Z,98866.63
2024-03-03T04:07:50.904Z,98866.69
2024-03-03T04:11:52.573Z,98857.28
2024-03-03T04:15:54.271Z,98864.00
2024-03-03T04:19:55.887Z,98864.00
2024-03-03T04:23:57.476Z,98858.88
2024-03-03T04:27:59.122Z,98857.16
2024-03-03T04:32:00.935Z,98875.84
2024-03-03T04:36:03.084Z,98875.78
2024-03-03T04:40:05.285Z,98874.03
2024-03-03T04:44:07.520Z,98876.56
2024-03-03T04:48:09.212Z,98873.09
2024-03-03T04:52:10.960Z,98858.50
2024-03-03T04:56:12.597Z,98859.03
2024-03-03T05:00:15.339Z,98855.56
2024-03-03T05:04:17.325Z,98859.78
2024-03-03T05:08:19.094Z,98856.31
2024-03-03T05:12:20.804Z,98864.78
2024-03-03T05:16:22.453Z,98868.84
2024-03-03T05:20:24.158Z,98862.84
2024-03-03T05:24:25.882Z,98869.69
2024-03-03T05:28:28.207Z,98883.16
2024-03-03T05:32:29.976Z,98870.09
2024-03-03T05:36:31.619Z,98874.19
2024-03-03T05:40:33.215Z,98875.81
2024-03-03T05:44:36.613Z,98879.44
2024-03-03T05:48:38.959Z,98871.44
2024-03-03T05:52:40.783Z,98886.75
2024-03-03T05:56:42.449Z,98896.94
2024-03-03T06:00:44.035Z,98888.56
2024-03-03T06:04:45.715Z,98880.09
2024-03-03T06:08:51.438Z,98881.09
2024-03-03T06:12:53.108Z,98887.09
2024-03-03T06:16:54.757Z,98877.78
2024-03-03T06:20:56.378Z,98888.00
2024-03-03T06:24:58.092Z,98897.53
2024-03-03T06:29:00.100Z,98878.22
2024-03-03T06:33:02.172Z,98891.19
2024-03-03T06:37:04.491Z,98880.19
2024-03-03T06:41:06.193Z,98880.16
2024-03-03T06:45:08.227Z,98888.66
2024-03-03T06:49:09.889Z,98886.00
2024-03-03T06:53:11.523Z,98893.56
2024-03-03T06:57:13.259Z,98890.31
2024-03-03T07:01:15.361Z,98883.75
2024-03-03T07:05:18.158Z,98888.19
2024-03-03T07:09:23.694Z,98885.81
2024-03-03T07:13:25.353Z,98876.28
2024-03-03T07:17:27.039Z,98886.25
2024-03-03T07:21:29.313Z,98879.97
2024-03-03T07:25:31.664Z,98875.91
2024-03-03T07:29:33.358Z,98885.41
2024-03-03T07:33:34.949Z,98883.84
2024-03-03T07:37:38.628Z,98877.22
2024-03-03T07:41:41.541Z,98873.91
2024-03-03T07:45:43.458Z,98870.69
2024-03-03T07:49:45.254Z,98867.66
2024-03-03T07:53:47.478Z,98868.00
2024-03-03T07:57:49.126Z,98863.94
2024-03-03T08:01:50.836Z,98868.41
2024-03-03T08:05:52.511Z,98859.09
2024-03-03T08:09:54.478Z,98859.16
2024-03-03T08:13:56.164Z,98859.16
2024-03-03T08:18:01.684Z,98843.94
2024-03-03T08:22:04.397Z,98846.63
2024-03-03T08:26:06.376Z,98851.91
2024-03-03T08:30:12.701Z,98856.28
2024-03-03T08:34:14.948Z,98864.97
2024-03-03T08:38:16.789Z,98862.53
2024-03-03T08:42:18.669Z,98861.75
2024-03-03T08:46:20.364Z,98866.16
2024-03-03T08:50:22.282Z,98867.13
2024-03-03T08:54:23.895Z,98864.63
2024-03-03T08:58:25.788Z,98862.06
2024-03-03T09:02:27.448Z,98856.13
2024-03-03T09:06:29.217Z,98856.03
2024-03-03T09:10:31.101Z,98852.63
2024-03-03T09:14:34.170Z,98862.03
2024-03-03T09:18:35.916Z,98854.44
2024-03-03T09:22:38.160Z,98851.19
2024-03-03T09:26:41.562Z,98852.13
2024-03-03T09:30:43.257Z,98854.72
2024-03-03T09:34:44.952Z,98848.72
2024-03-03T09:38:46.990Z,98839.25
2024-03-03T09:42:50.190Z,98841.88
2024-03-03T09:46:54.015Z,98847.03
2024-03-03T09:50:56.543Z,98835.94
2024-03-03T09:54:59.440Z,98847.06
2024-03-03T09:59:01.488Z,98843.59
2024-03-03T10:03:08.349Z,98838.56
2024-03-03T10:07:12.988Z,98836.03
2024-03-03T10:11:18.525Z,98839.47
2024-03-03T10:15:21.739Z,98836.91
2024-03-03T10:19:23.685Z,98826.63
2024-03-03T10:23:25.917Z,98832.63
2024-03-03T10:27:27.609Z,98825.81
2024-03-03T10:31:30.811Z,98830.09
2024-03-03T10:35:32.541Z,98828.44
2024-03-03T10:39:39.599Z,98824.16
2024-03-03T10:43:41.339Z,98816.47
2024-03-03T10:47:43.391Z,98830.16
2024-03-03T10:51:45.523Z,98819.91
2024-03-03T10:55:48.369Z,98813.94
2024-03-03T10:59:50.640Z,98796.84
2024-03-03T11:03:54.527Z,98788.38
2024-03-03T11:07:57.673Z,98785.84
2024-03-03T11:12:04.104Z,98797.91
2024-03-03T11:16:07.664Z,98797.06
2024-03-03T11:20:18.135Z,98791.91
2024-03-03T11:24:30.343Z,98789.34
2024-03-03T11:28:35.241Z,98773.94
2024-03-03T11:32:37.837Z,98770.56
2024-03-03T11:36:40.157Z,98767.09
2024-03-03T11:40:42.565Z,98761.97
2024-03-03T11:44:51.947Z,98758.53
2024-03-03T11:49:00.828Z,98762.78
2024-03-03T11:53:02.487Z,98744.75
2024-03-03T11:57:08.733Z,98733.56
2024-03-03T12:01:12.248Z,98743.78
2024-03-03T12:05:15.668Z,98740.25
2024-03-03T12:09:19.934Z,98729.00
2024-03-03T12:13:22.614Z,98721.13
2024-03-03T12:17:24.226Z,98717.63
2024-03-03T12:21:26.816Z,98708.09
2024-03-03T12:25:28.667Z,98708.78
2024-03-03T12:29:30.530Z,98705.31
2024-03-03T12:33:34.191Z,98707.75
2024-03-03T12:37:36.122Z,98690.44
2024-03-03T12:41:38.811Z,98679.97
2024-03-03T12:45:44.851Z,98692.75
2024-03-03T12:49:46.433Z,98677.97
2024-03-03T12:53:48.287Z,98674.31
2024-03-03T12:57:49.950Z,98673.38
2024-03-03T13:01:52.699Z,98665.63
2024-03-03T13:05:54.500Z,98657.91
2024-03-03T13:09:56.140Z,98650.13
2024-03-03T13:13:58.008Z,98654.28
2024-03-03T13:18:09.337Z,98649.81
2024-03-03T13:22:11.144Z,98642.66
2024-03-03T13:26:12.836Z,98633.06
2024-03-03T13:30:14.967Z,98632.88
2024-03-03T13:34:17.269Z,98634.47
2024-03-03T13:38:19.093Z,98630.03
2024-03-03T13:42:20.776Z,98623.78
2024-03-03T13:46:22.415Z,98628.84
2024-03-03T13:50:24.054Z,98636.59
2024-03-03T13:54:25.673Z,98634.81
2024-03-03T13:58:27.330Z,98638.28
2024-03-03T14:02:29.093Z,98639.97
2024-03-03T14:06:30.916Z,98633.75
2024-03-03T14:10:32.821Z,98639.56
2024-03-03T14:14:34.564Z,98639.50
2024-03-03T14:18:36.151Z,98641.06
2024-03-03T14:22:37.720Z,98640.84
2024-03-03T14:26:39.604Z,98635.53
2024-03-03T14:30:41.874Z,98644.06
2024-03-03T14:34:43.519Z,98658.03
2024-03-03T14:38:45.337Z,98656.44
2024-03-03T14:42:47.144Z,98660.06
2024-03-03T14:46:48.875Z,98668.59
2024-03-03T14:50:50.492Z,98666.25
2024-03-03T14:54:52.151Z,98663.06
2024-03-03T14:58:54.122Z,98669.31
2024-03-03T15:02:55.677Z,98658.97
2024-03-03T15:06:58.053Z,98663.28
2024-03-03T15:11:00.306Z,98671.00
2024-03-03T15:15:01.988Z,98658.94
2024-03-03T15:19:04.460Z,98666.09
2024-03-03T15:23:06.116Z,98663.78
2024-03-03T15:27:07.785Z,98668.16
2024-03-03T15:31:09.381Z,98666.59
2024-03-03T15:35:11.534Z,98678.00
2024-03-03T15:39:13.958Z,98672.66
2024-03-03T15:43:15.703Z,98678.72
2024-03-03T15:47:17.314Z,98683.94
2024-03-03T15:51:18.910Z,98693.53
2024-03-03T15:55:20.486Z,98692.78
2024-03-03T15:59:22.209Z,98699.75
2024-03-03T16:03:24.041Z,98696.34
2024-03-03T16:07:25.839Z,98698.19
2024-03-03T16:11:27.996Z,98703.44
2024-03-03T16:15:29.769Z,98706.06
2024-03-03T16:19:31.450Z,98698.34
2024-03-03T16:23:33.124Z,98702.84
2024-03-03T16:27:34.815Z,98712.47
2024-03-03T16:31:37.902Z,98710.00
2024-03-03T16:35:39.829Z,98721.28
2024-03-03T16:39:41.333Z,98718.91
2024-03-03T16:43:43.050Z,98725.06
2024-03-03T16:47:44.706Z,98731.19
2024-03-03T16:51:49.124Z,98751.06
2024-03-03T16:55:50.951Z,98753.69
2024-03-03T16:59:53.854Z,98760.63
2024-03-03T17:03:55.429Z,98758.13
2024-03-03T17:07:59.976Z,98771.91
2024-03-03T17:12:01.675Z,98766.78
2024-03-03T17:16:03.488Z,98781.44
2024-03-03T17:20:09.982Z,98781.44
2024-03-03T17:24:12.305Z,98786.66
2024-03-03T17:28:14.034Z,98785.81
2024-03-03T17:32:15.910Z,98800.41
2024-03-03T17:36:17.550Z,98807.25
2024-03-03T17:40:19.307Z,98809.00
2024-03-03T17:44:20.898Z,98821.03
2024-03-03T17:48:22.484Z,98818.47
2024-03-03T17:52:24.100Z,98829.63
2024-03-03T17:56:26.010Z,98834.78
2024-03-03T18:00:27.937Z,98839.94
2024-03-03T18:04:29.616Z,98844.22
2024-03-03T18:08:31.420Z,98851.06
2024-03-03T18:12:33.052Z,98847.66
2024-03-03T18:16:34.720Z,98856.22
2024-03-03T18:20:36.378Z,98855.34
2024-03-03T18:24:38.060Z,98857.03
2024-03-03T18:28:40.044Z,98863.03
2024-03-03T18:32:44.420Z,98870.69
2024-03-03T18:36:48.833Z,98869.84
2024-03-03T18:40:51.716Z,98864.69
2024-03-03T18:44:53.389Z,98867.25
2024-03-03T18:48:55.068Z,98866.38
2024-03-03T18:52:56.913Z,98878.34
2024-03-03T18:57:00.260Z,98878.34
2024-03-03T19:01:03.797Z,98879.19
2024-03-03T19:05:07.735Z,98886.84
2024-03-03T19:09:12.973Z,98903.13
2024-03-03T19:13:14.721Z,98909.94
2024-03-03T19:17:17.037Z,98912.47
2024-03-03T19:21:19.642Z,98909.81
2024-03-03T19:25:21.437Z,98916.59
2024-03-03T19:29:23.074Z,98931.97
2024-03-03T19:33:24.752Z,98941.34
2024-03-03T19:37:26.555Z,98943.91
2024-03-03T19:41:28.374Z,98943.88
2024-03-03T19:45:32.415Z,98940.44
2024-03-03T19:49:34.416Z,98945.56
2024-03-03T19:53:36.226Z,98958.38
2024-03-03T19:57:38.035Z,98955.78
2024-03-03T20:01:40.151Z,98961.72
2024-03-03T20:05:41.808Z,98969.38
2024-03-03T20:09:46.455Z,98980.41
2024-03-03T20:13:49.207Z,98978.66
2024-03-03T20:17:51.661Z,98988.81
2024-03-03T20:21:56.230Z,98992.16
2024-03-03T20:25:58.116Z,98998.94
2024-03-03T20:30:00.170Z,99001.44
2024-03-03T20:34:01.903Z,99006.53
2024-03-03T20:38:05.376Z,99020.97
2024-03-03T20:42:07.602Z,99016.63
2024-03-03T20:46:09.260Z,99035.41
2024-03-03T20:50:12.495Z,99038.00
2024-03-03T20:54:16.276Z,99049.94
2024-03-03T20:58:18.176Z,99050.81
2024-03-03T21:02:19.861Z,99043.97
2024-03-03T21:06:21.493Z,99058.41
2024-03-03T21:10:23.515Z,99055.81
2024-03-03T21:14:26.462Z,99075.41
2024-03-03T21:18:28.836Z,99071.94
2024-03-03T21:22:30.454Z,99067.69
2024-03-03T21:26:32.149Z,99078.75
2024-03-03T21:30:33.940Z,99074.44
2024-03-03T21:34:35.810Z,99082.97
2024-03-03T21:38:38.302Z,99088.09
2024-03-03T21:42:40.082Z,99100.94
2024-03-03T21:46:41.911Z,99106.97
2024-03-03T21:50:45.233Z,99113.78
2024-03-03T21:54:48.879Z,99108.59
2024-03-03T21:58:50.584Z,99111.16
2024-03-03T22:02:52.263Z,99118.84
2024-03-03T22:06:54.072Z,99116.13
2024-03-03T22:10:56.009Z,99125.44
2024-03-03T22:15:00.906Z,99131.44
2024-03-03T22:19:02.873Z,99135.69
2024-03-03T22:23:04.807Z,99144.22
2024-03-03T22:27:06.840Z,99151.88
2024-03-03T22:31:08.697Z,99148.34
2024-03-03T22:35:10.316Z,99151.66
2024-03-03T22:39:11.989Z,99160.13
2024-03-03T22:43:13.781Z,99173.72
2024-03-03T22:47:15.457Z,99182.16
2024-03-03T22:51:17.050Z,99180.44
2024-03-03T22:55:18.804Z,99180.38
2024-03-03T22:59:20.598Z,99203.41
2024-03-03T23:03:22.236Z,99218.69
2024-03-03T23:07:23.847Z,99235.66
2024-03-03T23:11:26.216Z,99242.41
2024-03-03T23:15:27.802Z,99241.41
2024-03-03T23:19:29.503Z,99262.63
2024-03-03T23:23:31.204Z,99266.81
2024-03-03T23:27:33.890Z,99269.22
2024-03-03T23:31:35.655Z,99265.59
2024-03-03T23:35:37.418Z,99269.75
2024-03-03T23:39:39.138Z,99266.31
2024-03-03T23:43:40.852Z,99276.50
2024-03-03T23:47:42.820Z,99287.56
2024-03-03T23:51:44.547Z,99296.91
2024-03-03T23:55:46.415Z,99289.09
2024-03-03T23:59:48.078Z,99296.59
